createdAt,value
2016-11-13T00:00:37.794Z,1012.63
2016-11-13T00:01:52.020Z,1012.62
2016-11-13T00:03:06.887Z,1012.64
2016-11-13T00:04:20.687Z,1012.68
2016-11-13T00:05:35.882Z,1012.64
2016-11-13T00:06:50.826Z,1012.66
2016-11-13T00:08:08.070Z,1012.65
2016-11-13T00:09:23.292Z,1012.58
2016-11-13T00:10:38.106Z,1012.55
2016-11-13T00:11:52.457Z,1012.59
2016-11-13T00:13:06.963Z,1012.62
2016-11-13T00:14:21.225Z,1012.59
2016-11-13T00:15:34.973Z,1012.59
2016-11-13T00:16:49.294Z,1012.62
2016-11-13T00:18:03.671Z,1012.58
2016-11-13T00:19:17.948Z,1012.6
2016-11-13T00:20:32.204Z,1012.58
2016-11-13T00:21:45.712Z,1012.59
2016-11-13T00:22:59.432Z,1012.54
2016-11-13T00:24:13.268Z,1012.6
2016-11-13T00:25:27.143Z,1012.59
2016-11-13T00:26:40.703Z,1012.6
2016-11-13T00:27:54.182Z,1012.65
2016-11-13T00:29:08.037Z,1012.66
2016-11-13T00:30:21.888Z,1012.69
2016-11-13T00:31:35.865Z,1012.7
2016-11-13T00:32:50.327Z,1012.73
2016-11-13T00:34:05.088Z,1012.71
2016-11-13T00:35:18.939Z,1012.74
2016-11-13T00:36:32.840Z,1012.74
2016-11-13T00:37:46.869Z,1012.73
2016-11-13T00:39:00.998Z,1012.76
2016-11-13T00:40:15.309Z,1012.75
2016-11-13T00:41:29.264Z,1012.76
2016-11-13T00:42:58.064Z,1012.74
2016-11-13T00:44:27.249Z,1012.76
2016-11-13T00:45:41.565Z,1012.74
2016-11-13T00:46:55.171Z,1012.78
2016-11-13T00:48:08.874Z,1012.71
2016-11-13T00:49:22.810Z,1012.75
2016-11-13T00:50:37.940Z,1012.73
2016-11-13T00:51:52.187Z,1012.72
2016-11-13T00:53:06.154Z,1012.67
2016-11-13T00:54:21.176Z,1012.72
2016-11-13T00:55:35.783Z,1012.68
2016-11-13T00:56:49.750Z,1012.68
2016-11-13T00:58:04.425Z,1012.67
2016-11-13T00:59:19.280Z,1012.68
2016-11-13T01:00:33.309Z,1012.64
2016-11-13T01:02:01.967Z,1012.64
2016-11-13T01:03:16.145Z,1012.63
2016-11-13T01:04:30.216Z,1012.64
2016-11-13T01:05:44.278Z,1012.63
2016-11-13T01:06:58.489Z,1012.6
2016-11-13T01:08:12.067Z,1012.61
2016-11-13T01:09:26.312Z,1012.57
2016-11-13T01:10:40.662Z,1012.57
2016-11-13T01:11:54.148Z,1012.58
2016-11-13T01:13:08.309Z,1012.58
2016-11-13T01:14:22.281Z,1012.59
2016-11-13T01:15:36.529Z,1012.56
2016-11-13T01:16:50.369Z,1012.58
2016-11-13T01:18:04.245Z,1012.53
2016-11-13T01:19:18.242Z,1012.54
2016-11-13T01:20:32.225Z,1012.57
2016-11-13T01:21:46.448Z,1012.58
2016-11-13T01:23:00.336Z,1012.55
2016-11-13T01:24:14.213Z,1012.55
2016-11-13T01:25:30.967Z,1012.55
2016-11-13T01:26:45.034Z,1012.55
2016-11-13T01:27:58.555Z,1012.53
2016-11-13T01:29:12.657Z,1012.51
2016-11-13T01:30:26.488Z,1012.52
2016-11-13T01:31:40.411Z,1012.51
2016-11-13T01:32:54.231Z,1012.54
2016-11-13T01:34:08.095Z,1012.56
2016-11-13T01:35:22.139Z,1012.54
2016-11-13T01:36:36.169Z,1012.57
2016-11-13T01:37:49.817Z,1012.6
2016-11-13T01:39:04.014Z,1012.52
2016-11-13T01:40:17.560Z,1012.58
2016-11-13T01:41:31.313Z,1012.53
2016-11-13T01:42:45.290Z,1012.56
2016-11-13T01:43:59.320Z,1012.57
2016-11-13T01:45:12.791Z,1012.59
2016-11-13T01:46:26.465Z,1012.57
2016-11-13T01:47:40.840Z,1012.61
2016-11-13T01:48:54.667Z,1012.6
2016-11-13T01:50:09.115Z,1012.61
2016-11-13T01:53:11.972Z,1012.61
2016-11-13T01:54:25.955Z,1012.64
2016-11-13T01:55:39.892Z,1012.64
2016-11-13T01:56:53.645Z,1012.7
2016-11-13T01:58:07.628Z,1012.67
2016-11-13T01:59:21.530Z,1012.71
2016-11-13T02:00:35.742Z,1012.66
2016-11-13T02:01:50.148Z,1012.69
2016-11-13T02:03:06.575Z,1012.69
2016-11-13T02:04:20.715Z,1012.68
2016-11-13T02:05:34.551Z,1012.64
2016-11-13T02:06:48.625Z,1012.67
2016-11-13T02:08:02.510Z,1012.65
2016-11-13T02:09:16.338Z,1012.6
2016-11-13T02:10:30.631Z,1012.62
2016-11-13T02:11:44.524Z,1012.64
2016-11-13T02:12:58.312Z,1012.61
2016-11-13T02:14:12.433Z,1012.62
2016-11-13T02:15:26.469Z,1012.62
2016-11-13T02:16:40.015Z,1012.68
2016-11-13T02:17:54.813Z,1012.66
2016-11-13T02:19:08.521Z,1012.58
2016-11-13T02:20:22.751Z,1012.62
2016-11-13T02:21:36.534Z,1012.62
2016-11-13T02:22:50.730Z,1012.59
2016-11-13T02:24:04.717Z,1012.63
2016-11-13T02:25:18.793Z,1012.66
2016-11-13T02:26:32.808Z,1012.65
2016-11-13T02:27:47.788Z,1012.63
2016-11-13T02:29:19.723Z,1012.71
2016-11-13T02:30:34.141Z,1012.65
2016-11-13T02:33:17.071Z,1012.67
2016-11-13T02:34:30.693Z,1012.65
2016-11-13T02:35:44.509Z,1012.63
2016-11-13T02:36:59.474Z,1012.61
2016-11-13T02:38:13.586Z,1012.59
2016-11-13T02:39:27.811Z,1012.61
2016-11-13T02:40:41.518Z,1012.64
2016-11-13T02:41:55.173Z,1012.62
2016-11-13T02:43:09.438Z,1012.66
2016-11-13T02:44:25.871Z,1012.64
2016-11-13T02:45:39.621Z,1012.63
2016-11-13T02:46:53.603Z,1012.64
2016-11-13T02:48:07.781Z,1012.62
2016-11-13T02:49:21.294Z,1012.66
2016-11-13T02:50:35.303Z,1012.63
2016-11-13T02:51:49.291Z,1012.59
2016-11-13T02:53:03.383Z,1012.62
2016-11-13T02:54:18.070Z,1012.6
2016-11-13T02:55:32.455Z,1012.64
2016-11-13T02:56:46.607Z,1012.61
2016-11-13T02:58:01.221Z,1012.64
2016-11-13T02:59:31.216Z,1012.64
2016-11-13T03:00:56.570Z,1012.58
2016-11-13T03:02:34.916Z,1012.58
2016-11-13T03:03:58.716Z,1012.58
2016-11-13T03:05:21.796Z,1012.55
2016-11-13T03:06:48.303Z,1012.6
2016-11-13T03:08:09.522Z,1012.55
2016-11-13T03:09:29.242Z,1012.6
2016-11-13T03:10:48.760Z,1012.59
2016-11-13T03:12:05.646Z,1012.6
2016-11-13T03:13:20.870Z,1012.56
2016-11-13T03:14:34.844Z,1012.54
2016-11-13T03:15:48.528Z,1012.54
2016-11-13T03:17:02.352Z,1012.54
2016-11-13T03:18:16.117Z,1012.52
2016-11-13T03:19:30.473Z,1012.57
2016-11-13T03:20:44.100Z,1012.57
2016-11-13T03:21:58.253Z,1012.59
2016-11-13T03:23:11.936Z,1012.55
2016-11-13T03:24:25.897Z,1012.57
2016-11-13T03:25:39.773Z,1012.55
2016-11-13T03:26:53.614Z,1012.54
2016-11-13T03:28:07.999Z,1012.53
2016-11-13T03:29:22.910Z,1012.5
2016-11-13T03:30:40.337Z,1012.47
2016-11-13T03:32:00.280Z,1012.49
2016-11-13T03:33:19.453Z,1012.48
2016-11-13T03:34:48.968Z,1012.47
2016-11-13T03:36:02.838Z,1012.55
2016-11-13T03:37:16.586Z,1012.5
2016-11-13T03:38:45.365Z,1012.54
2016-11-13T03:39:59.108Z,1012.55
2016-11-13T03:41:12.895Z,1012.58
2016-11-13T03:42:27.152Z,1012.64
2016-11-13T03:43:41.311Z,1012.64
2016-11-13T03:44:55.178Z,1012.63
2016-11-13T03:46:09.136Z,1012.66
2016-11-13T03:47:23.000Z,1012.67
2016-11-13T03:48:37.075Z,1012.69
2016-11-13T03:49:51.028Z,1012.68
2016-11-13T03:51:05.018Z,1012.64
2016-11-13T03:52:19.170Z,1012.7
2016-11-13T03:53:32.798Z,1012.71
2016-11-13T03:54:46.609Z,1012.72
2016-11-13T03:56:00.572Z,1012.69
2016-11-13T03:57:14.396Z,1012.74
2016-11-13T03:58:28.683Z,1012.73
2016-11-13T03:59:42.291Z,1012.75
2016-11-13T04:00:56.493Z,1012.76
2016-11-13T04:02:11.241Z,1012.77
2016-11-13T04:03:27.609Z,1012.77
2016-11-13T04:04:41.760Z,1012.8
2016-11-13T04:05:55.753Z,1012.78
2016-11-13T04:07:10.150Z,1012.77
2016-11-13T04:08:24.365Z,1012.83
2016-11-13T04:09:38.523Z,1012.84
2016-11-13T04:10:52.351Z,1012.81
2016-11-13T04:12:06.373Z,1012.82
2016-11-13T04:13:20.253Z,1012.84
2016-11-13T04:14:34.232Z,1012.79
2016-11-13T04:15:48.177Z,1012.8
2016-11-13T04:17:02.254Z,1012.8
2016-11-13T04:18:16.344Z,1012.8
2016-11-13T04:19:30.810Z,1012.8
2016-11-13T04:20:45.052Z,1012.8
2016-11-13T04:21:59.303Z,1012.74
2016-11-13T04:23:13.581Z,1012.72
2016-11-13T04:24:27.979Z,1012.66
2016-11-13T04:25:42.672Z,1012.67
2016-11-13T04:26:56.250Z,1012.7
2016-11-13T04:28:10.279Z,1012.68
2016-11-13T04:29:38.984Z,1012.7
2016-11-13T04:30:53.119Z,1012.66
2016-11-13T04:32:07.054Z,1012.71
2016-11-13T04:33:20.628Z,1012.72
2016-11-13T04:34:34.479Z,1012.77
2016-11-13T04:35:48.408Z,1012.73
2016-11-13T04:37:02.674Z,1012.67
2016-11-13T04:38:16.629Z,1012.62
2016-11-13T04:39:30.506Z,1012.63
2016-11-13T04:40:44.187Z,1012.61
2016-11-13T04:41:58.609Z,1012.6
2016-11-13T04:43:12.586Z,1012.61
2016-11-13T04:44:26.440Z,1012.6
2016-11-13T04:45:40.238Z,1012.62
2016-11-13T04:46:53.820Z,1012.61
2016-11-13T04:48:07.989Z,1012.62
2016-11-13T04:49:22.549Z,1012.63
2016-11-13T04:50:36.262Z,1012.65
2016-11-13T04:51:50.071Z,1012.64
2016-11-13T04:53:04.764Z,1012.69
2016-11-13T04:54:19.330Z,1012.67
2016-11-13T04:55:34.096Z,1012.71
2016-11-13T04:56:47.931Z,1012.66
2016-11-13T04:58:01.667Z,1012.68
2016-11-13T04:59:15.293Z,1012.67
2016-11-13T05:00:29.286Z,1012.67
2016-11-13T05:01:43.700Z,1012.67
2016-11-13T05:02:57.871Z,1012.7
2016-11-13T05:04:11.790Z,1012.76
2016-11-13T05:05:25.533Z,1012.78
2016-11-13T05:06:39.376Z,1012.76
2016-11-13T05:07:53.686Z,1012.73
2016-11-13T05:09:07.715Z,1012.74
2016-11-13T05:10:21.553Z,1012.75
2016-11-13T05:11:35.329Z,1012.77
2016-11-13T05:12:49.362Z,1012.72
2016-11-13T05:14:03.613Z,1012.69
2016-11-13T05:15:17.943Z,1012.75
2016-11-13T05:16:31.901Z,1012.78
2016-11-13T05:17:45.724Z,1012.81
2016-11-13T05:18:59.557Z,1012.79
2016-11-13T05:20:16.245Z,1012.84
2016-11-13T05:21:30.465Z,1012.84
2016-11-13T05:22:44.176Z,1012.85
2016-11-13T05:23:58.050Z,1012.82
2016-11-13T05:25:12.570Z,1012.91
2016-11-13T05:26:26.681Z,1012.91
2016-11-13T05:27:40.808Z,1012.93
2016-11-13T05:28:54.669Z,1012.95
2016-11-13T05:30:08.490Z,1012.95
2016-11-13T05:31:22.391Z,1012.99
2016-11-13T05:32:36.656Z,1012.99
2016-11-13T05:33:50.758Z,1012.98
2016-11-13T05:35:04.538Z,1012.99
2016-11-13T05:36:18.173Z,1013
2016-11-13T05:37:32.073Z,1013.05
2016-11-13T05:38:46.156Z,1012.99
2016-11-13T05:40:00.275Z,1013.06
2016-11-13T05:41:14.162Z,1013.02
2016-11-13T05:42:27.835Z,1013.04
2016-11-13T05:43:41.746Z,1013.03
2016-11-13T05:44:56.017Z,1013.1
2016-11-13T05:46:10.023Z,1013.07
2016-11-13T05:47:24.061Z,1013.08
2016-11-13T05:48:37.753Z,1013.13
2016-11-13T05:49:51.934Z,1013.12
2016-11-13T05:51:06.038Z,1013.06
2016-11-13T05:52:20.535Z,1013.05
2016-11-13T05:53:49.376Z,1013.06
2016-11-13T05:55:03.946Z,1013.07
2016-11-13T05:56:18.110Z,1013.02
2016-11-13T05:57:32.521Z,1013.04
2016-11-13T05:58:46.678Z,1013.07
2016-11-13T06:00:00.720Z,1013.01
2016-11-13T06:01:14.507Z,1012.98
2016-11-13T06:02:28.698Z,1013.03
2016-11-13T06:03:42.663Z,1013.04
2016-11-13T06:04:56.984Z,1013.05
2016-11-13T06:06:11.289Z,1013.04
2016-11-13T06:07:25.062Z,1013.05
2016-11-13T06:08:39.015Z,1013.07
2016-11-13T06:12:35.613Z,1013.13
2016-11-13T06:13:49.421Z,1013.11
2016-11-13T06:15:03.610Z,1013.11
2016-11-13T06:16:17.421Z,1013.12
2016-11-13T06:17:31.615Z,1013.17
2016-11-13T06:18:45.387Z,1013.19
2016-11-13T06:19:59.262Z,1013.19
2016-11-13T06:21:12.995Z,1013.28
2016-11-13T06:22:26.882Z,1013.32
2016-11-13T06:23:41.223Z,1013.29
2016-11-13T06:24:55.277Z,1013.29
2016-11-13T06:26:09.478Z,1013.34
2016-11-13T06:27:24.115Z,1013.3
2016-11-13T06:28:37.995Z,1013.34
2016-11-13T06:29:52.662Z,1013.33
2016-11-13T06:31:06.177Z,1013.32
2016-11-13T06:32:20.075Z,1013.34
2016-11-13T06:33:34.022Z,1013.38
2016-11-13T06:34:47.996Z,1013.37
2016-11-13T06:36:02.602Z,1013.41
2016-11-13T06:37:16.523Z,1013.37
2016-11-13T06:38:32.868Z,1013.37
2016-11-13T06:39:46.861Z,1013.38
2016-11-13T06:41:00.888Z,1013.39
2016-11-13T06:42:14.851Z,1013.43
2016-11-13T06:43:28.774Z,1013.44
2016-11-13T06:44:42.786Z,1013.39
2016-11-13T06:46:11.747Z,1013.41
2016-11-13T06:47:25.781Z,1013.4
2016-11-13T06:48:39.989Z,1013.42
2016-11-13T06:49:53.839Z,1013.42
2016-11-13T06:51:07.928Z,1013.47
2016-11-13T06:52:21.747Z,1013.48
2016-11-13T06:53:35.908Z,1013.56
2016-11-13T06:54:50.427Z,1013.51
2016-11-13T06:56:04.393Z,1013.58
2016-11-13T06:57:18.554Z,1013.58
2016-11-13T06:58:32.811Z,1013.58
2016-11-13T06:59:47.340Z,1013.59
2016-11-13T07:01:01.893Z,1013.59
2016-11-13T07:02:15.746Z,1013.55
2016-11-13T07:03:29.637Z,1013.53
2016-11-13T07:04:43.750Z,1013.53
2016-11-13T07:05:57.762Z,1013.53
2016-11-13T07:07:12.002Z,1013.55
2016-11-13T07:08:25.973Z,1013.57
2016-11-13T07:09:40.115Z,1013.61
2016-11-13T07:10:54.315Z,1013.63
2016-11-13T07:12:08.083Z,1013.66
2016-11-13T07:13:22.354Z,1013.65
2016-11-13T07:14:40.982Z,1013.7
2016-11-13T07:15:54.673Z,1013.63
2016-11-13T07:17:09.784Z,1013.68
2016-11-13T07:18:23.595Z,1013.71
2016-11-13T07:19:37.734Z,1013.73
2016-11-13T07:20:51.691Z,1013.73
2016-11-13T07:22:05.758Z,1013.69
2016-11-13T07:23:20.905Z,1013.66
2016-11-13T07:24:34.694Z,1013.67
2016-11-13T07:25:48.952Z,1013.67
2016-11-13T07:27:03.119Z,1013.68
2016-11-13T07:28:16.967Z,1013.67
2016-11-13T07:29:31.117Z,1013.63
2016-11-13T07:30:44.664Z,1013.66
2016-11-13T07:31:58.270Z,1013.69
2016-11-13T07:33:12.356Z,1013.63
2016-11-13T07:34:25.941Z,1013.67
2016-11-13T07:35:54.834Z,1013.7
2016-11-13T07:37:08.775Z,1013.72
2016-11-13T07:38:22.852Z,1013.77
2016-11-13T07:39:37.606Z,1013.7
2016-11-13T07:40:51.759Z,1013.64
2016-11-13T07:42:06.984Z,1013.64
2016-11-13T07:43:21.103Z,1013.65
2016-11-13T07:44:35.186Z,1013.68
2016-11-13T07:45:48.815Z,1013.73
2016-11-13T07:47:03.023Z,1013.76
2016-11-13T07:48:31.712Z,1013.73
2016-11-13T07:49:45.525Z,1013.77
2016-11-13T07:50:59.475Z,1013.79
2016-11-13T07:52:13.997Z,1013.82
2016-11-13T07:53:27.769Z,1013.89
2016-11-13T07:54:41.643Z,1013.9
2016-11-13T07:55:58.271Z,1013.92
2016-11-13T07:57:12.141Z,1013.9
2016-11-13T07:58:26.604Z,1013.92
2016-11-13T07:59:40.520Z,1013.95
2016-11-13T08:00:54.450Z,1014.03
2016-11-13T08:02:08.649Z,1013.99
2016-11-13T08:03:23.365Z,1014.01
2016-11-13T08:04:37.773Z,1014.02
2016-11-13T08:05:52.071Z,1014.07
2016-11-13T08:07:05.955Z,1014.06
2016-11-13T08:08:19.892Z,1014.11
2016-11-13T08:09:34.166Z,1014.15
2016-11-13T08:10:48.425Z,1014.16
2016-11-13T08:12:02.907Z,1014.22
2016-11-13T08:13:16.919Z,1014.21
2016-11-13T08:14:31.273Z,1014.23
2016-11-13T08:15:45.151Z,1014.24
2016-11-13T08:16:59.711Z,1014.29
2016-11-13T08:18:13.785Z,1014.32
2016-11-13T08:20:56.559Z,1014.3
2016-11-13T08:22:10.554Z,1014.39
2016-11-13T08:23:24.850Z,1014.35
2016-11-13T08:24:39.046Z,1014.37
2016-11-13T08:25:53.308Z,1014.36
2016-11-13T08:27:07.392Z,1014.34
2016-11-13T08:32:08.826Z,1014.39
2016-11-13T08:33:22.691Z,1014.35
2016-11-13T08:34:36.748Z,1014.27
2016-11-13T08:35:51.095Z,1014.32
2016-11-13T08:37:06.177Z,1014.33
2016-11-13T08:38:21.111Z,1014.35
2016-11-13T08:39:35.178Z,1014.35
2016-11-13T08:40:49.158Z,1014.38
2016-11-13T08:42:17.958Z,1014.42
2016-11-13T08:43:32.575Z,1014.46
2016-11-13T08:44:46.492Z,1014.48
2016-11-13T08:46:00.437Z,1014.54
2016-11-13T08:47:13.925Z,1014.54
2016-11-13T08:48:27.711Z,1014.54
2016-11-13T08:49:42.183Z,1014.54
2016-11-13T08:50:56.475Z,1014.62
2016-11-13T08:52:10.166Z,1014.58
2016-11-13T08:53:24.521Z,1014.55
2016-11-13T08:54:39.751Z,1014.52
2016-11-13T08:55:55.045Z,1014.53
2016-11-13T08:57:09.580Z,1014.52
2016-11-13T08:58:24.373Z,1014.55
2016-11-13T08:59:37.967Z,1014.58
2016-11-13T09:00:51.938Z,1014.58
2016-11-13T09:02:06.949Z,1014.52
2016-11-13T09:03:20.681Z,1014.53
2016-11-13T09:04:34.955Z,1014.53
2016-11-13T09:05:48.913Z,1014.56
2016-11-13T09:07:02.808Z,1014.52
2016-11-13T09:08:16.960Z,1014.53
2016-11-13T09:09:30.786Z,1014.55
2016-11-13T09:10:45.001Z,1014.57
2016-11-13T09:11:59.254Z,1014.53
2016-11-13T09:13:13.139Z,1014.51
2016-11-13T09:14:29.496Z,1014.53
2016-11-13T09:15:43.368Z,1014.54
2016-11-13T09:16:57.361Z,1014.56
2016-11-13T09:18:11.794Z,1014.56
2016-11-13T09:19:25.744Z,1014.6
2016-11-13T09:20:39.648Z,1014.61
2016-11-13T09:21:53.748Z,1014.58
2016-11-13T09:23:07.828Z,1014.65
2016-11-13T09:24:22.046Z,1014.7
2016-11-13T09:25:36.194Z,1014.73
2016-11-13T09:26:50.176Z,1014.69
2016-11-13T09:28:04.179Z,1014.74
2016-11-13T09:29:18.855Z,1014.67
2016-11-13T09:30:32.756Z,1014.65
2016-11-13T09:31:47.092Z,1014.65
2016-11-13T09:33:01.516Z,1014.67
2016-11-13T09:34:15.463Z,1014.69
2016-11-13T09:35:29.657Z,1014.68
2016-11-13T09:36:43.637Z,1014.73
2016-11-13T09:37:57.839Z,1014.67
2016-11-13T09:39:12.151Z,1014.68
2016-11-13T09:40:26.059Z,1014.68
2016-11-13T09:41:39.797Z,1014.68
2016-11-13T09:42:53.316Z,1014.67
2016-11-13T09:44:06.928Z,1014.67
2016-11-13T09:45:21.249Z,1014.68
2016-11-13T09:46:34.881Z,1014.65
2016-11-13T09:47:48.644Z,1014.63
2016-11-13T09:49:02.438Z,1014.65
2016-11-13T09:50:16.241Z,1014.71
2016-11-13T09:51:30.329Z,1014.73
2016-11-13T09:52:43.887Z,1014.74
2016-11-13T09:53:57.904Z,1014.69
2016-11-13T09:55:11.448Z,1014.63
2016-11-13T09:56:25.339Z,1014.7
2016-11-13T09:57:39.535Z,1014.67
2016-11-13T09:58:53.292Z,1014.71
2016-11-13T10:00:06.997Z,1014.69
2016-11-13T10:01:20.961Z,1014.64
2016-11-13T10:02:35.469Z,1014.71
2016-11-13T10:03:50.541Z,1014.64
2016-11-13T10:05:20.533Z,1014.59
2016-11-13T10:06:34.527Z,1014.63
2016-11-13T10:07:48.220Z,1014.59
2016-11-13T10:09:02.595Z,1014.65
2016-11-13T10:10:17.325Z,1014.65
2016-11-13T10:11:31.319Z,1014.64
2016-11-13T10:12:45.589Z,1014.62
2016-11-13T10:14:00.199Z,1014.71
2016-11-13T10:15:14.699Z,1014.66
2016-11-13T10:16:29.130Z,1014.64
2016-11-13T10:17:57.574Z,1014.68
2016-11-13T10:19:11.551Z,1014.66
2016-11-13T10:20:25.494Z,1014.67
2016-11-13T10:21:39.629Z,1014.67
2016-11-13T10:22:53.762Z,1014.65
2016-11-13T10:24:07.672Z,1014.58
2016-11-13T10:25:21.332Z,1014.54
2016-11-13T10:26:35.490Z,1014.54
2016-11-13T10:27:49.639Z,1014.54
2016-11-13T10:29:03.816Z,1014.59
2016-11-13T10:30:18.033Z,1014.59
2016-11-13T10:31:34.433Z,1014.62
2016-11-13T10:32:48.117Z,1014.6
2016-11-13T10:34:02.419Z,1014.63
2016-11-13T10:35:16.379Z,1014.56
2016-11-13T10:36:30.327Z,1014.57
2016-11-13T10:37:44.280Z,1014.53
2016-11-13T10:38:57.907Z,1014.58
2016-11-13T10:40:12.338Z,1014.56
2016-11-13T10:41:26.651Z,1014.51
2016-11-13T10:42:41.618Z,1014.48
2016-11-13T10:43:55.635Z,1014.48
2016-11-13T10:45:09.308Z,1014.46
2016-11-13T10:46:23.296Z,1014.37
2016-11-13T10:47:37.437Z,1014.42
2016-11-13T10:48:51.417Z,1014.39
2016-11-13T10:50:05.461Z,1014.37
2016-11-13T10:51:19.267Z,1014.39
2016-11-13T10:52:33.327Z,1014.39
2016-11-13T10:54:03.255Z,1014.36
2016-11-13T10:55:17.051Z,1014.41
2016-11-13T10:56:31.447Z,1014.41
2016-11-13T10:57:45.741Z,1014.39
2016-11-13T10:59:02.381Z,1014.36
2016-11-13T11:00:16.896Z,1014.43
2016-11-13T11:01:31.096Z,1014.4
2016-11-13T11:02:46.286Z,1014.39
2016-11-13T11:04:01.584Z,1014.44
2016-11-13T11:05:16.491Z,1014.44
2016-11-13T11:06:30.692Z,1014.43
2016-11-13T11:07:44.792Z,1014.41
2016-11-13T11:08:58.664Z,1014.42
2016-11-13T11:10:12.749Z,1014.4
2016-11-13T11:11:27.651Z,1014.4
2016-11-13T11:12:42.108Z,1014.37
2016-11-13T11:13:55.816Z,1014.37
2016-11-13T11:15:09.672Z,1014.31
2016-11-13T11:16:25.093Z,1014.32
2016-11-13T11:17:39.468Z,1014.38
2016-11-13T11:18:53.995Z,1014.34
2016-11-13T11:21:37.574Z,1014.33
2016-11-13T11:22:52.091Z,1014.33
2016-11-13T11:24:06.354Z,1014.33
2016-11-13T11:25:20.217Z,1014.37
2016-11-13T11:26:34.665Z,1014.38
2016-11-13T11:27:50.113Z,1014.33
2016-11-13T11:29:04.583Z,1014.36
2016-11-13T11:30:33.224Z,1014.31
2016-11-13T11:31:48.840Z,1014.34
2016-11-13T11:33:02.560Z,1014.31
2016-11-13T11:34:31.645Z,1014.31
2016-11-13T11:35:47.222Z,1014.31
2016-11-13T11:37:16.474Z,1014.3
2016-11-13T11:38:31.068Z,1014.28
2016-11-13T11:39:45.211Z,1014.29
2016-11-13T11:40:59.545Z,1014.27
2016-11-13T11:42:13.440Z,1014.25
2016-11-13T11:43:27.826Z,1014.24
2016-11-13T11:44:44.094Z,1014.19
2016-11-13T11:45:58.529Z,1014.19
2016-11-13T11:47:12.307Z,1014.18
2016-11-13T11:48:26.406Z,1014.2
2016-11-13T11:49:58.249Z,1014.19
2016-11-13T11:51:12.451Z,1014.15
2016-11-13T11:52:26.305Z,1014.13
2016-11-13T11:53:40.772Z,1014.15
2016-11-13T11:55:09.423Z,1014.06
2016-11-13T11:56:24.354Z,1014.02
2016-11-13T11:57:53.850Z,1014.07
2016-11-13T11:59:08.442Z,1014.07
2016-11-13T12:00:24.417Z,1013.99
2016-11-13T12:01:39.874Z,1014.01
2016-11-13T12:02:54.671Z,1013.99
2016-11-13T12:04:09.616Z,1014.03
2016-11-13T12:05:24.289Z,1013.97
2016-11-13T12:06:39.042Z,1013.97
2016-11-13T12:07:53.786Z,1013.93
2016-11-13T12:09:07.829Z,1013.93
2016-11-13T12:10:22.082Z,1013.82
2016-11-13T12:11:36.762Z,1013.86
2016-11-13T12:12:51.193Z,1013.84
2016-11-13T12:14:06.654Z,1013.83
2016-11-13T12:15:20.780Z,1013.88
2016-11-13T12:16:34.815Z,1013.95
2016-11-13T12:17:48.764Z,1013.85
2016-11-13T12:20:47.571Z,1013.92
2016-11-13T12:22:01.814Z,1013.91
2016-11-13T12:23:15.617Z,1013.95
2016-11-13T12:24:44.337Z,1013.93
2016-11-13T12:25:58.246Z,1013.9
2016-11-13T12:27:12.376Z,1013.91
2016-11-13T12:28:26.484Z,1013.8
2016-11-13T12:29:40.560Z,1013.81
2016-11-13T12:30:54.125Z,1013.85
2016-11-13T12:32:08.040Z,1013.93
2016-11-13T12:33:22.058Z,1013.82
2016-11-13T12:34:36.310Z,1013.87
2016-11-13T12:35:50.480Z,1013.85
2016-11-13T12:37:04.419Z,1013.87
2016-11-13T12:38:18.361Z,1013.9
2016-11-13T12:39:32.867Z,1013.87
2016-11-13T12:42:29.828Z,1013.9
2016-11-13T12:43:58.991Z,1013.89
2016-11-13T12:45:13.510Z,1013.87
2016-11-13T12:46:27.617Z,1013.92
2016-11-13T12:47:41.833Z,1013.87
2016-11-13T12:48:55.733Z,1013.86
2016-11-13T12:50:09.401Z,1013.85
2016-11-13T12:51:23.741Z,1013.88
2016-11-13T12:52:37.966Z,1013.85
2016-11-13T12:53:51.622Z,1013.85
2016-11-13T12:55:07.188Z,1013.89
2016-11-13T12:56:21.030Z,1013.9
2016-11-13T12:57:35.349Z,1013.89
2016-11-13T12:59:04.273Z,1013.78
2016-11-13T13:00:18.380Z,1013.88
2016-11-13T13:01:33.000Z,1013.9
2016-11-13T13:02:47.251Z,1013.87
2016-11-13T13:04:01.718Z,1013.9
2016-11-13T13:06:44.870Z,1013.91
2016-11-13T13:07:58.793Z,1013.96
2016-11-13T13:09:15.235Z,1013.95
2016-11-13T13:10:29.690Z,1013.98
2016-11-13T13:11:43.921Z,1013.99
2016-11-13T13:13:12.575Z,1013.98
2016-11-13T13:14:27.341Z,1014
2016-11-13T13:15:41.285Z,1014.01
2016-11-13T13:16:55.252Z,1014
2016-11-13T13:18:09.399Z,1013.97
2016-11-13T13:19:37.787Z,1013.97
2016-11-13T13:20:52.129Z,1014
2016-11-13T13:22:07.938Z,1014
2016-11-13T13:23:22.099Z,1013.96
2016-11-13T13:24:35.686Z,1013.95
2016-11-13T13:26:04.685Z,1013.99
2016-11-13T13:27:33.247Z,1014.01
2016-11-13T13:28:46.935Z,1013.99
2016-11-13T13:30:15.482Z,1013.99
2016-11-13T13:31:29.135Z,1014
2016-11-13T13:32:44.481Z,1014.02
2016-11-13T13:33:58.519Z,1014.01
2016-11-13T13:35:12.211Z,1014.06
2016-11-13T13:36:26.366Z,1014.06
2016-11-13T13:37:40.982Z,1014.07
2016-11-13T13:38:55.825Z,1014.05
2016-11-13T13:40:09.689Z,1014.03
2016-11-13T13:41:23.854Z,1014.06
2016-11-13T13:42:38.086Z,1014.09
2016-11-13T13:43:52.088Z,1014.05
2016-11-13T13:45:06.536Z,1014.1
2016-11-13T13:46:20.643Z,1014.15
2016-11-13T13:47:34.703Z,1014.18
2016-11-13T13:49:03.376Z,1014.22
2016-11-13T13:50:17.500Z,1014.21
2016-11-13T13:51:32.365Z,1014.16
2016-11-13T13:52:46.322Z,1014.19
2016-11-13T13:54:00.267Z,1014.18
2016-11-13T13:55:14.019Z,1014.19
2016-11-13T13:56:28.085Z,1014.2
2016-11-13T13:57:42.639Z,1014.21
2016-11-13T13:58:57.043Z,1014.26
2016-11-13T14:00:11.016Z,1014.24
2016-11-13T14:01:25.339Z,1014.24
2016-11-13T14:02:39.698Z,1014.21
2016-11-13T14:03:53.751Z,1014.26
2016-11-13T14:05:10.837Z,1014.24
2016-11-13T14:06:24.667Z,1014.27
2016-11-13T14:07:38.543Z,1014.31
2016-11-13T14:08:52.742Z,1014.35
2016-11-13T14:10:07.908Z,1014.37
2016-11-13T14:11:22.859Z,1014.42
2016-11-13T14:12:40.040Z,1014.44
2016-11-13T14:13:56.163Z,1014.47
2016-11-13T14:15:13.444Z,1014.52
2016-11-13T14:16:48.177Z,1014.48
2016-11-13T14:18:02.079Z,1014.45
2016-11-13T14:19:16.459Z,1014.51
2016-11-13T14:20:31.132Z,1014.52
2016-11-13T14:21:46.044Z,1014.47
2016-11-13T14:23:01.664Z,1014.52
2016-11-13T14:24:15.629Z,1014.5
2016-11-13T14:25:30.396Z,1014.54
2016-11-13T14:26:44.920Z,1014.56
2016-11-13T14:28:01.150Z,1014.55
2016-11-13T14:29:29.917Z,1014.58
2016-11-13T14:30:43.794Z,1014.59
2016-11-13T14:31:57.997Z,1014.61
2016-11-13T14:33:12.129Z,1014.69
2016-11-13T14:34:26.550Z,1014.69
2016-11-13T14:35:40.169Z,1014.74
2016-11-13T14:36:54.170Z,1014.72
2016-11-13T14:38:08.067Z,1014.74
2016-11-13T14:39:22.410Z,1014.76
2016-11-13T14:40:36.632Z,1014.71
2016-11-13T14:41:53.069Z,1014.79
2016-11-13T14:43:15.641Z,1014.79
2016-11-13T14:44:29.901Z,1014.82
2016-11-13T14:47:12.940Z,1014.83
2016-11-13T14:48:41.835Z,1014.82
2016-11-13T14:49:56.596Z,1014.91
2016-11-13T14:51:10.522Z,1014.87
2016-11-13T14:52:25.625Z,1014.89
2016-11-13T14:53:40.495Z,1014.89
2016-11-13T14:54:54.507Z,1014.93
2016-11-13T14:56:08.472Z,1015
2016-11-13T14:57:22.829Z,1015
2016-11-13T14:58:36.690Z,1015.04
2016-11-13T15:00:08.479Z,1015.04
2016-11-13T15:01:23.330Z,1015.11
2016-11-13T15:02:37.881Z,1015.11
2016-11-13T15:03:52.608Z,1015.1
2016-11-13T15:05:06.282Z,1015.14
2016-11-13T15:06:19.982Z,1015.15
2016-11-13T15:07:34.234Z,1015.19
2016-11-13T15:08:50.660Z,1015.2
2016-11-13T15:10:04.829Z,1015.22
2016-11-13T15:11:18.682Z,1015.21
2016-11-13T15:12:32.460Z,1015.24
2016-11-13T15:13:48.274Z,1015.3
2016-11-13T15:15:02.609Z,1015.36
2016-11-13T15:16:16.593Z,1015.34
2016-11-13T15:17:34.754Z,1015.32
2016-11-13T15:18:49.110Z,1015.4
2016-11-13T15:20:07.790Z,1015.37
2016-11-13T15:21:21.489Z,1015.36
2016-11-13T15:22:35.415Z,1015.37
2016-11-13T15:23:49.387Z,1015.39
2016-11-13T15:25:03.466Z,1015.38
2016-11-13T15:26:17.531Z,1015.43
2016-11-13T15:27:32.205Z,1015.43
2016-11-13T15:28:47.050Z,1015.45
2016-11-13T15:30:00.579Z,1015.47
2016-11-13T15:31:14.296Z,1015.4